Akron, Pennsylvania
Current Conditions -  °F | °C
As of 2:53 PM on Wednesday 26 Nov 2014 (Local Time) from KLNS Reporting Station
Light Snow Light Snow  
Wind Chill: 28°   Ceiling: 1900
Heat Index: 33°   Visibility: 1.7mi
Dew Point: 32°   Wind: 6mph
Humidity: 96%   Direction: 340°NNW
Pressure: 29.9"   Gusts: NA
Location:  40.16°N, 76.2°W
Report Text: KLNS 261953Z AUTO 34005KT 1 3/4SM -SN BR SCT007 SCT011 OVC019 01/00 A2990 RMK AO2 SLP128 P0003 T00060000
Loading
Personal Weather Stations






























Interactive Weather Map New forecast layout! Learn more

10-Day Weather Forecast

Advertisements
Track Severe Weather on mobile